sensor_id;sensor_type;location;lat;lon;timestamp;temperature;humidity
16767;DHT22;8501;49.926;8.404;2023-11-22T00:01:34;7.80;99.90
16767;DHT22;8501;49.926;8.404;2023-11-22T00:04:00;7.80;99.90
16767;DHT22;8501;49.926;8.404;2023-11-22T00:06:26;7.70;99.90
16767;DHT22;8501;49.926;8.404;2023-11-22T00:08:52;7.70;99.90
16767;DHT22;8501;49.926;8.404;2023-11-22T00:11:18;7.60;99.90
16767;DHT22;8501;49.926;8.404;2023-11-22T00:13:45;7.50;99.90
16767;DHT22;8501;49.926;8.404;2023-11-22T00:16:10;7.50;99.90
16767;DHT22;8501;49.926;8.404;2023-11-22T00:18:36;7.50;99.90
16767;DHT22;8501;49.926;8.404;2023-11-22T00:21:06;7.50;99.90
16767;DHT22;8501;49.926;8.404;2023-11-22T00:23:31;7.60;99.90
16767;DHT22;8501;49.926;8.404;2023-11-22T00:25:57;7.50;99.90
16767;DHT22;8501;49.926;8.404;2023-11-22T00:28:24;7.50;99.90
16767;DHT22;8501;49.926;8.404;2023-11-22T00:30:49;7.50;99.90
16767;DHT22;8501;49.926;8.404;2023-11-22T00:33:15;7.50;99.90
16767;DHT22;8501;49.926;8.404;2023-11-22T00:35:40;7.50;99.90
16767;DHT22;8501;49.926;8.404;2023-11-22T00:38:06;7.50;99.90
16767;DHT22;8501;49.926;8.404;2023-11-22T00:40:31;7.50;99.90
16767;DHT22;8501;49.926;8.404;2023-11-22T00:42:57;7.40;99.90
16767;DHT22;8501;49.926;8.404;2023-11-22T00:45:23;7.40;99.90
16767;DHT22;8501;49.926;8.404;2023-11-22T00:47:49;7.40;99.90
16767;DHT22;8501;49.926;8.404;2023-11-22T00:50:16;7.30;99.90
16767;DHT22;8501;49.926;8.404;2023-11-22T00:52:45;7.30;99.90
16767;DHT22;8501;49.926;8.404;2023-11-22T00:55:11;7.30;99.90
16767;DHT22;8501;49.926;8.404;2023-11-22T00:57:37;7.30;99.90
16767;DHT22;8501;49.926;8.404;2023-11-22T01:00:04;7.20;99.90
16767;DHT22;8501;49.926;8.404;2023-11-22T01:02:29;7.20;99.90
16767;DHT22;8501;49.926;8.404;2023-11-22T01:04:55;7.20;99.90
16767;DHT22;8501;49.926;8.404;2023-11-22T01:07:21;7.20;99.90
16767;DHT22;8501;49.926;8.404;2023-11-22T01:09:46;7.20;99.90
16767;DHT22;8501;49.926;8.404;2023-11-22T01:12:12;7.20;99.90
16767;DHT22;8501;49.926;8.404;2023-11-22T01:14:38;7.10;99.90
16767;DHT22;8501;49.926;8.404;2023-11-22T01:17:05;7.10;99.90
16767;DHT22;8501;49.926;8.404;2023-11-22T01:19:30;7.10;99.90
16767;DHT22;8501;49.926;8.404;2023-11-22T01:21:56;7.00;99.90
16767;DHT22;8501;49.926;8.404;2023-11-22T01:24:21;7.00;99.90
16767;DHT22;8501;49.926;8.404;2023-11-22T01:26:47;6.90;99.90
16767;DHT22;8501;49.926;8.404;2023-11-22T01:29:12;7.00;99.90
16767;DHT22;8501;49.926;8.404;2023-11-22T01:31:38;6.80;99.90
16767;DHT22;8501;49.926;8.404;2023-11-22T01:34:04;6.80;99.90
16767;DHT22;8501;49.926;8.404;2023-11-22T01:36:31;6.80;99.90
16767;DHT22;8501;49.926;8.404;2023-11-22T01:38:57;6.70;99.90
16767;DHT22;8501;49.926;8.404;2023-11-22T01:41:22;6.70;99.90
16767;DHT22;8501;49.926;8.404;2023-11-22T01:43:48;6.70;99.90
16767;DHT22;8501;49.926;8.404;2023-11-22T01:46:31;6.70;99.90
16767;DHT22;8501;49.926;8.404;2023-11-22T01:48:59;6.70;99.90
16767;DHT22;8501;49.926;8.404;2023-11-22T01:51:25;6.60;99.90
16767;DHT22;8501;49.926;8.404;2023-11-22T01:53:54;6.60;99.90
16767;DHT22;8501;49.926;8.404;2023-11-22T01:56:23;6.50;99.90
16767;DHT22;8501;49.926;8.404;2023-11-22T01:58:49;6.40;99.90
16767;DHT22;8501;49.926;8.404;2023-11-22T02:01:15;6.40;99.90
16767;DHT22;8501;49.926;8.404;2023-11-22T02:03:41;6.40;99.90
16767;DHT22;8501;49.926;8.404;2023-11-22T02:06:07;6.30;99.90
16767;DHT22;8501;49.926;8.404;2023-11-22T02:08:35;6.30;99.90
16767;DHT22;8501;49.926;8.404;2023-11-22T02:11:01;6.30;99.90
16767;DHT22;8501;49.926;8.404;2023-11-22T02:13:30;6.30;99.90
16767;DHT22;8501;49.926;8.404;2023-11-22T02:15:56;6.30;99.90
16767;DHT22;8501;49.926;8.404;2023-11-22T02:18:26;6.30;99.90
16767;DHT22;8501;49.926;8.404;2023-11-22T02:20:51;6.30;99.90
16767;DHT22;8501;49.926;8.404;2023-11-22T02:23:17;6.20;99.90
16767;DHT22;8501;49.926;8.404;2023-11-22T02:25:43;6.20;99.90
16767;DHT22;8501;49.926;8.404;2023-11-22T02:28:08;6.20;99.90
16767;DHT22;8501;49.926;8.404;2023-11-22T02:30:34;6.10;99.90
16767;DHT22;8501;49.926;8.404;2023-11-22T02:33:00;6.10;99.90
16767;DHT22;8501;49.926;8.404;2023-11-22T02:35:26;6.10;99.90
16767;DHT22;8501;49.926;8.404;2023-11-22T02:37:52;6.10;99.90
16767;DHT22;8501;49.926;8.404;2023-11-22T02:40:19;6.10;99.90
16767;DHT22;8501;49.926;8.404;2023-11-22T02:42:49;6.20;99.90
16767;DHT22;8501;49.926;8.404;2023-11-22T02:45:28;6.10;99.90
16767;DHT22;8501;49.926;8.404;2023-11-22T02:47:54;6.10;99.90
16767;DHT22;8501;49.926;8.404;2023-11-22T02:50:20;6.10;99.90
16767;DHT22;8501;49.926;8.404;2023-11-22T02:52:45;6.00;99.90
16767;DHT22;8501;49.926;8.404;2023-11-22T02:55:11;6.00;99.90
16767;DHT22;8501;49.926;8.404;2023-11-22T02:57:39;6.00;99.90
16767;DHT22;8501;49.926;8.404;2023-11-22T03:00:06;6.00;99.90
16767;DHT22;8501;49.926;8.404;2023-11-22T03:02:33;6.00;99.90
16767;DHT22;8501;49.926;8.404;2023-11-22T03:04:59;6.00;99.90
16767;DHT22;8501;49.926;8.404;2023-11-22T03:07:27;6.00;99.90
16767;DHT22;8501;49.926;8.404;2023-11-22T03:09:53;5.90;99.90
16767;DHT22;8501;49.926;8.404;2023-11-22T03:12:19;6.00;99.90
16767;DHT22;8501;49.926;8.404;2023-11-22T03:15:00;6.00;99.90
16767;DHT22;8501;49.926;8.404;2023-11-22T03:17:28;5.90;99.90
16767;DHT22;8501;49.926;8.404;2023-11-22T03:19:57;5.90;99.90
16767;DHT22;8501;49.926;8.404;2023-11-22T03:22:26;5.90;99.90
16767;DHT22;8501;49.926;8.404;2023-11-22T03:24:52;5.80;99.90
16767;DHT22;8501;49.926;8.404;2023-11-22T03:27:18;5.80;99.90
16767;DHT22;8501;49.926;8.404;2023-11-22T03:29:43;5.80;99.90
16767;DHT22;8501;49.926;8.404;2023-11-22T03:32:09;5.80;99.90
16767;DHT22;8501;49.926;8.404;2023-11-22T03:34:36;5.70;99.90
16767;DHT22;8501;49.926;8.404;2023-11-22T03:37:02;5.70;99.90
16767;DHT22;8501;49.926;8.404;2023-11-22T03:39:27;5.70;99.90
16767;DHT22;8501;49.926;8.404;2023-11-22T03:41:53;5.80;99.90
16767;DHT22;8501;49.926;8.404;2023-11-22T03:44:18;5.70;99.90
16767;DHT22;8501;49.926;8.404;2023-11-22T03:46:44;5.70;99.90
16767;DHT22;8501;49.926;8.404;2023-11-22T03:49:10;5.70;99.90
16767;DHT22;8501;49.926;8.404;2023-11-22T03:51:36;5.70;99.90
16767;DHT22;8501;49.926;8.404;2023-11-22T03:54:02;5.70;99.90
16767;DHT22;8501;49.926;8.404;2023-11-22T03:56:28;5.60;99.90
16767;DHT22;8501;49.926;8.404;2023-11-22T03:58:53;5.60;99.90
16767;DHT22;8501;49.926;8.404;2023-11-22T04:01:19;5.60;99.90
16767;DHT22;8501;49.926;8.404;2023-11-22T04:03:46;5.60;99.90
16767;DHT22;8501;49.926;8.404;2023-11-22T04:06:16;5.50;99.90
16767;DHT22;8501;49.926;8.404;2023-11-22T04:08:45;5.60;99.90
16767;DHT22;8501;49.926;8.404;2023-11-22T04:11:14;5.60;99.90
16767;DHT22;8501;49.926;8.404;2023-11-22T04:13:40;5.60;99.90
16767;DHT22;8501;49.926;8.404;2023-11-22T04:16:09;5.70;99.90
16767;DHT22;8501;49.926;8.404;2023-11-22T04:18:39;5.60;99.90
16767;DHT22;8501;49.926;8.404;2023-11-22T04:21:06;5.60;99.90
16767;DHT22;8501;49.926;8.404;2023-11-22T04:23:32;5.50;99.90
16767;DHT22;8501;49.926;8.404;2023-11-22T04:25:58;5.50;99.90
16767;DHT22;8501;49.926;8.404;2023-11-22T04:28:24;5.50;99.90
16767;DHT22;8501;49.926;8.404;2023-11-22T04:30:50;5.50;99.90
16767;DHT22;8501;49.926;8.404;2023-11-22T04:33:16;5.50;99.90
16767;DHT22;8501;49.926;8.404;2023-11-22T04:35:42;5.40;99.90
16767;DHT22;8501;49.926;8.404;2023-11-22T04:38:07;5.40;99.90
16767;DHT22;8501;49.926;8.404;2023-11-22T04:40:33;5.40;99.90
16767;DHT22;8501;49.926;8.404;2023-11-22T04:42:59;5.40;99.90
16767;DHT22;8501;49.926;8.404;2023-11-22T04:45:24;5.40;99.90
16767;DHT22;8501;49.926;8.404;2023-11-22T04:47:50;5.30;99.90
16767;DHT22;8501;49.926;8.404;2023-11-22T04:50:16;5.30;99.90
16767;DHT22;8501;49.926;8.404;2023-11-22T04:52:41;5.30;99.90
16767;DHT22;8501;49.926;8.404;2023-11-22T04:55:07;5.30;99.90
16767;DHT22;8501;49.926;8.404;2023-11-22T04:57:33;5.30;99.90
16767;DHT22;8501;49.926;8.404;2023-11-22T04:59:58;5.30;99.90
16767;DHT22;8501;49.926;8.404;2023-11-22T05:02:26;5.30;99.90
16767;DHT22;8501;49.926;8.404;2023-11-22T05:04:52;5.30;99.90
16767;DHT22;8501;49.926;8.404;2023-11-22T05:07:19;5.30;99.90
16767;DHT22;8501;49.926;8.404;2023-11-22T05:09:45;5.20;99.90
16767;DHT22;8501;49.926;8.404;2023-11-22T05:12:11;5.10;99.90
16767;DHT22;8501;49.926;8.404;2023-11-22T05:14:37;5.10;99.90
16767;DHT22;8501;49.926;8.404;2023-11-22T05:17:03;5.10;99.90
16767;DHT22;8501;49.926;8.404;2023-11-22T05:19:30;5.00;99.90
16767;DHT22;8501;49.926;8.404;2023-11-22T05:21:55;5.00;99.90
16767;DHT22;8501;49.926;8.404;2023-11-22T05:24:21;5.00;99.90
16767;DHT22;8501;49.926;8.404;2023-11-22T05:26:46;5.00;99.90
16767;DHT22;8501;49.926;8.404;2023-11-22T05:29:12;4.90;99.90
16767;DHT22;8501;49.926;8.404;2023-11-22T05:31:37;4.90;99.90
16767;DHT22;8501;49.926;8.404;2023-11-22T05:34:03;4.90;99.90
16767;DHT22;8501;49.926;8.404;2023-11-22T05:36:29;4.90;99.90
16767;DHT22;8501;49.926;8.404;2023-11-22T05:38:55;4.90;99.90
16767;DHT22;8501;49.926;8.404;2023-11-22T05:41:24;4.90;99.90
16767;DHT22;8501;49.926;8.404;2023-11-22T05:43:51;4.90;99.90
16767;DHT22;8501;49.926;8.404;2023-11-22T05:46:19;4.90;99.90
16767;DHT22;8501;49.926;8.404;2023-11-22T05:48:51;4.90;99.90
16767;DHT22;8501;49.926;8.404;2023-11-22T05:51:16;4.90;99.90
16767;DHT22;8501;49.926;8.404;2023-11-22T05:53:42;5.00;99.90
16767;DHT22;8501;49.926;8.404;2023-11-22T05:56:08;5.00;99.90
16767;DHT22;8501;49.926;8.404;2023-11-22T05:58:34;5.10;99.90
16767;DHT22;8501;49.926;8.404;2023-11-22T06:00:59;5.10;99.90
16767;DHT22;8501;49.926;8.404;2023-11-22T06:03:25;5.00;99.90
16767;DHT22;8501;49.926;8.404;2023-11-22T06:05:51;5.10;99.90
16767;DHT22;8501;49.926;8.404;2023-11-22T06:08:16;5.10;99.90
16767;DHT22;8501;49.926;8.404;2023-11-22T06:10:42;5.00;99.90
16767;DHT22;8501;49.926;8.404;2023-11-22T06:13:07;5.00;99.90
16767;DHT22;8501;49.926;8.404;2023-11-22T06:15:34;4.90;99.90
16767;DHT22;8501;49.926;8.404;2023-11-22T06:17:59;5.00;99.90
16767;DHT22;8501;49.926;8.404;2023-11-22T06:20:25;4.90;99.90
16767;DHT22;8501;49.926;8.404;2023-11-22T06:22:52;4.90;99.90
16767;DHT22;8501;49.926;8.404;2023-11-22T06:25:17;4.80;99.90
16767;DHT22;8501;49.926;8.404;2023-11-22T06:27:43;4.80;99.90
16767;DHT22;8501;49.926;8.404;2023-11-22T06:30:09;4.70;99.90
16767;DHT22;8501;49.926;8.404;2023-11-22T06:32:34;4.80;99.90
16767;DHT22;8501;49.926;8.404;2023-11-22T06:35:00;4.70;99.90
16767;DHT22;8501;49.926;8.404;2023-11-22T06:37:26;4.80;99.90
16767;DHT22;8501;49.926;8.404;2023-11-22T06:39:51;4.80;99.90
16767;DHT22;8501;49.926;8.404;2023-11-22T06:42:17;4.80;99.90
16767;DHT22;8501;49.926;8.404;2023-11-22T06:44:43;4.70;99.90
16767;DHT22;8501;49.926;8.404;2023-11-22T06:47:09;4.70;99.90
16767;DHT22;8501;49.926;8.404;2023-11-22T06:49:34;4.70;99.90
16767;DHT22;8501;49.926;8.404;2023-11-22T06:52:00;4.70;99.90
16767;DHT22;8501;49.926;8.404;2023-11-22T06:54:26;4.60;99.90
16767;DHT22;8501;49.926;8.404;2023-11-22T06:56:51;4.70;99.90
16767;DHT22;8501;49.926;8.404;2023-11-22T06:59:17;4.60;99.90
16767;DHT22;8501;49.926;8.404;2023-11-22T07:01:44;4.60;99.90
16767;DHT22;8501;49.926;8.404;2023-11-22T07:04:09;4.60;99.90
16767;DHT22;8501;49.926;8.404;2023-11-22T07:06:35;4.50;99.90
16767;DHT22;8501;49.926;8.404;2023-11-22T07:09:03;4.60;99.90
16767;DHT22;8501;49.926;8.404;2023-11-22T07:11:29;4.60;99.90
16767;DHT22;8501;49.926;8.404;2023-11-22T07:13:56;4.60;99.90
16767;DHT22;8501;49.926;8.404;2023-11-22T07:16:23;4.60;99.90
16767;DHT22;8501;49.926;8.404;2023-11-22T07:18:49;4.60;99.90
16767;DHT22;8501;49.926;8.404;2023-11-22T07:21:15;4.60;99.90
16767;DHT22;8501;49.926;8.404;2023-11-22T07:23:42;4.60;99.90
16767;DHT22;8501;49.926;8.404;2023-11-22T07:26:07;4.60;99.90
16767;DHT22;8501;49.926;8.404;2023-11-22T07:28:33;4.50;99.90
16767;DHT22;8501;49.926;8.404;2023-11-22T07:31:01;4.60;99.90
16767;DHT22;8501;49.926;8.404;2023-11-22T07:33:27;4.60;99.90
16767;DHT22;8501;49.926;8.404;2023-11-22T07:35:52;4.60;99.90
16767;DHT22;8501;49.926;8.404;2023-11-22T07:38:18;4.50;99.90
16767;DHT22;8501;49.926;8.404;2023-11-22T07:40:45;4.60;99.90
16767;DHT22;8501;49.926;8.404;2023-11-22T07:43:10;4.50;99.90
16767;DHT22;8501;49.926;8.404;2023-11-22T07:45:36;4.50;99.90
16767;DHT22;8501;49.926;8.404;2023-11-22T07:48:03;4.50;99.90
16767;DHT22;8501;49.926;8.404;2023-11-22T07:50:29;4.50;99.90
16767;DHT22;8501;49.926;8.404;2023-11-22T07:52:55;4.50;99.90
16767;DHT22;8501;49.926;8.404;2023-11-22T07:55:21;4.50;99.90
16767;DHT22;8501;49.926;8.404;2023-11-22T07:57:48;4.50;99.90
16767;DHT22;8501;49.926;8.404;2023-11-22T08:00:15;4.60;99.90
16767;DHT22;8501;49.926;8.404;2023-11-22T08:02:47;4.60;99.90
16767;DHT22;8501;49.926;8.404;2023-11-22T08:05:13;4.60;99.90
16767;DHT22;8501;49.926;8.404;2023-11-22T08:07:41;4.70;99.90
16767;DHT22;8501;49.926;8.404;2023-11-22T08:10:10;4.60;99.90
16767;DHT22;8501;49.926;8.404;2023-11-22T08:12:43;4.60;99.90
16767;DHT22;8501;49.926;8.404;2023-11-22T08:15:10;4.60;99.90
16767;DHT22;8501;49.926;8.404;2023-11-22T08:17:38;4.60;99.90
16767;DHT22;8501;49.926;8.404;2023-11-22T08:20:04;4.50;99.90
16767;DHT22;8501;49.926;8.404;2023-11-22T08:22:34;4.70;99.90
16767;DHT22;8501;49.926;8.404;2023-11-22T08:25:04;4.70;99.90
16767;DHT22;8501;49.926;8.404;2023-11-22T08:27:29;4.60;99.90
16767;DHT22;8501;49.926;8.404;2023-11-22T08:29:55;4.70;99.90
16767;DHT22;8501;49.926;8.404;2023-11-22T08:32:21;4.70;99.90
16767;DHT22;8501;49.926;8.404;2023-11-22T08:34:49;4.70;99.90
16767;DHT22;8501;49.926;8.404;2023-11-22T08:37:15;4.70;99.90
16767;DHT22;8501;49.926;8.404;2023-11-22T08:39:41;4.70;99.90
16767;DHT22;8501;49.926;8.404;2023-11-22T08:42:07;4.70;99.90
16767;DHT22;8501;49.926;8.404;2023-11-22T08:44:35;4.70;99.90
16767;DHT22;8501;49.926;8.404;2023-11-22T08:47:01;4.70;99.90
16767;DHT22;8501;49.926;8.404;2023-11-22T08:49:28;4.70;99.90
16767;DHT22;8501;49.926;8.404;2023-11-22T08:51:54;4.70;99.90
16767;DHT22;8501;49.926;8.404;2023-11-22T08:54:19;4.70;99.90
16767;DHT22;8501;49.926;8.404;2023-11-22T08:56:45;4.60;99.90
16767;DHT22;8501;49.926;8.404;2023-11-22T08:59:12;4.70;99.90
16767;DHT22;8501;49.926;8.404;2023-11-22T09:01:38;4.60;99.90
16767;DHT22;8501;49.926;8.404;2023-11-22T09:04:03;4.50;99.90
16767;DHT22;8501;49.926;8.404;2023-11-22T09:06:29;4.50;99.90
16767;DHT22;8501;49.926;8.404;2023-11-22T09:08:55;4.60;99.90
16767;DHT22;8501;49.926;8.404;2023-11-22T09:11:21;4.60;99.90
16767;DHT22;8501;49.926;8.404;2023-11-22T09:13:48;4.70;99.90
16767;DHT22;8501;49.926;8.404;2023-11-22T09:16:15;4.70;99.90
16767;DHT22;8501;49.926;8.404;2023-11-22T09:18:42;4.70;99.90
16767;DHT22;8501;49.926;8.404;2023-11-22T09:21:08;4.70;99.90
16767;DHT22;8501;49.926;8.404;2023-11-22T09:23:35;4.70;99.90
16767;DHT22;8501;49.926;8.404;2023-11-22T09:26:02;4.80;99.90
16767;DHT22;8501;49.926;8.404;2023-11-22T09:28:28;4.70;99.90
16767;DHT22;8501;49.926;8.404;2023-11-22T09:30:53;4.80;99.90
16767;DHT22;8501;49.926;8.404;2023-11-22T09:33:26;4.80;99.90
16767;DHT22;8501;49.926;8.404;2023-11-22T09:35:52;4.80;99.90
16767;DHT22;8501;49.926;8.404;2023-11-22T09:38:18;4.80;99.90
16767;DHT22;8501;49.926;8.404;2023-11-22T09:40:50;4.90;99.90
16767;DHT22;8501;49.926;8.404;2023-11-22T09:43:18;4.90;99.90
16767;DHT22;8501;49.926;8.404;2023-11-22T09:45:46;4.90;99.90
16767;DHT22;8501;49.926;8.404;2023-11-22T09:48:15;4.80;99.90
16767;DHT22;8501;49.926;8.404;2023-11-22T09:50:57;4.80;99.90
16767;DHT22;8501;49.926;8.404;2023-11-22T09:53:31;4.90;99.90
16767;DHT22;8501;49.926;8.404;2023-11-22T09:55:58;5.00;99.90
16767;DHT22;8501;49.926;8.404;2023-11-22T09:58:24;4.90;99.90
16767;DHT22;8501;49.926;8.404;2023-11-22T10:00:50;5.00;99.90
16767;DHT22;8501;49.926;8.404;2023-11-22T10:03:17;4.90;99.90
16767;DHT22;8501;49.926;8.404;2023-11-22T10:05:43;4.90;99.90
16767;DHT22;8501;49.926;8.404;2023-11-22T10:08:09;4.90;99.90
16767;DHT22;8501;49.926;8.404;2023-11-22T10:10:36;4.90;99.90
16767;DHT22;8501;49.926;8.404;2023-11-22T10:13:02;4.90;99.90
16767;DHT22;8501;49.926;8.404;2023-11-22T10:15:28;4.90;99.90
16767;DHT22;8501;49.926;8.404;2023-11-22T10:17:56;4.90;99.90
16767;DHT22;8501;49.926;8.404;2023-11-22T10:23:00;4.80;99.90
16767;DHT22;8501;49.926;8.404;2023-11-22T10:25:26;4.80;99.90
16767;DHT22;8501;49.926;8.404;2023-11-22T10:27:51;4.90;99.90
16767;DHT22;8501;49.926;8.404;2023-11-22T10:30:18;4.80;99.90
16767;DHT22;8501;49.926;8.404;2023-11-22T10:32:44;4.90;99.90
16767;DHT22;8501;49.926;8.404;2023-11-22T10:35:11;4.90;99.90
16767;DHT22;8501;49.926;8.404;2023-11-22T10:37:39;4.90;99.90
16767;DHT22;8501;49.926;8.404;2023-11-22T10:40:05;4.90;99.90
16767;DHT22;8501;49.926;8.404;2023-11-22T10:42:33;4.90;99.90
16767;DHT22;8501;49.926;8.404;2023-11-22T10:44:59;4.90;99.90
16767;DHT22;8501;49.926;8.404;2023-11-22T10:47:29;4.90;99.90
16767;DHT22;8501;49.926;8.404;2023-11-22T10:49:55;4.90;99.90
16767;DHT22;8501;49.926;8.404;2023-11-22T10:52:24;5.00;99.90
16767;DHT22;8501;49.926;8.404;2023-11-22T10:54:58;5.00;99.90
16767;DHT22;8501;49.926;8.404;2023-11-22T10:57:31;5.00;99.90
16767;DHT22;8501;49.926;8.404;2023-11-22T10:59:57;5.00;99.90
16767;DHT22;8501;49.926;8.404;2023-11-22T11:02:27;4.90;99.90
16767;DHT22;8501;49.926;8.404;2023-11-22T11:05:03;5.00;99.90
16767;DHT22;8501;49.926;8.404;2023-11-22T11:07:37;4.90;99.90
16767;DHT22;8501;49.926;8.404;2023-11-22T11:10:06;4.90;99.90
16767;DHT22;8501;49.926;8.404;2023-11-22T11:12:32;4.90;99.90
16767;DHT22;8501;49.926;8.404;2023-11-22T11:14:58;4.90;99.90
16767;DHT22;8501;49.926;8.404;2023-11-22T11:17:25;4.90;99.90
16767;DHT22;8501;49.926;8.404;2023-11-22T11:19:51;4.90;99.90
16767;DHT22;8501;49.926;8.404;2023-11-22T11:22:17;4.90;99.90
16767;DHT22;8501;49.926;8.404;2023-11-22T11:24:47;4.90;99.90
16767;DHT22;8501;49.926;8.404;2023-11-22T11:27:14;4.90;99.90
16767;DHT22;8501;49.926;8.404;2023-11-22T11:29:40;5.00;99.90
16767;DHT22;8501;49.926;8.404;2023-11-22T11:32:31;5.00;99.90
16767;DHT22;8501;49.926;8.404;2023-11-22T11:35:05;5.00;99.90
16767;DHT22;8501;49.926;8.404;2023-11-22T11:37:33;5.00;99.90
16767;DHT22;8501;49.926;8.404;2023-11-22T11:39:59;5.00;99.90
16767;DHT22;8501;49.926;8.404;2023-11-22T11:42:24;5.10;99.90
16767;DHT22;8501;49.926;8.404;2023-11-22T11:47:24;5.00;99.90
16767;DHT22;8501;49.926;8.404;2023-11-22T11:49:50;5.10;99.90
16767;DHT22;8501;49.926;8.404;2023-11-22T11:52:16;5.10;99.90
16767;DHT22;8501;49.926;8.404;2023-11-22T11:54:41;5.10;99.90
16767;DHT22;8501;49.926;8.404;2023-11-22T11:57:07;5.10;99.90
16767;DHT22;8501;49.926;8.404;2023-11-22T11:59:34;5.10;99.90
16767;DHT22;8501;49.926;8.404;2023-11-22T12:02:00;5.00;99.90
16767;DHT22;8501;49.926;8.404;2023-11-22T12:04:26;5.10;99.90
16767;DHT22;8501;49.926;8.404;2023-11-22T12:06:52;5.10;99.90
16767;DHT22;8501;49.926;8.404;2023-11-22T12:09:27;5.10;99.90
16767;DHT22;8501;49.926;8.404;2023-11-22T12:11:54;5.10;99.90
16767;DHT22;8501;49.926;8.404;2023-11-22T12:14:20;5.10;99.90
16767;DHT22;8501;49.926;8.404;2023-11-22T12:16:47;5.20;99.90
16767;DHT22;8501;49.926;8.404;2023-11-22T12:19:21;5.20;99.90
16767;DHT22;8501;49.926;8.404;2023-11-22T12:21:48;5.20;99.90
16767;DHT22;8501;49.926;8.404;2023-11-22T12:24:14;5.20;99.90
16767;DHT22;8501;49.926;8.404;2023-11-22T12:26:45;5.20;99.90
16767;DHT22;8501;49.926;8.404;2023-11-22T12:29:12;5.40;99.90
16767;DHT22;8501;49.926;8.404;2023-11-22T12:31:48;5.40;99.90
16767;DHT22;8501;49.926;8.404;2023-11-22T12:34:18;5.50;99.90
16767;DHT22;8501;49.926;8.404;2023-11-22T12:36:46;5.60;99.90
16767;DHT22;8501;49.926;8.404;2023-11-22T12:39:13;5.60;99.90
16767;DHT22;8501;49.926;8.404;2023-11-22T12:41:43;5.60;99.90
16767;DHT22;8501;49.926;8.404;2023-11-22T12:44:09;5.60;99.90
16767;DHT22;8501;49.926;8.404;2023-11-22T12:46:48;5.70;99.90
16767;DHT22;8501;49.926;8.404;2023-11-22T12:49:23;5.60;99.90
16767;DHT22;8501;49.926;8.404;2023-11-22T12:51:49;5.60;99.90
16767;DHT22;8501;49.926;8.404;2023-11-22T12:54:15;5.60;99.90
16767;DHT22;8501;49.926;8.404;2023-11-22T12:56:42;5.60;99.90
16767;DHT22;8501;49.926;8.404;2023-11-22T12:59:07;5.50;99.90
16767;DHT22;8501;49.926;8.404;2023-11-22T13:01:34;5.40;99.90
16767;DHT22;8501;49.926;8.404;2023-11-22T13:04:00;5.50;99.90
16767;DHT22;8501;49.926;8.404;2023-11-22T13:06:26;5.50;99.90
16767;DHT22;8501;49.926;8.404;2023-11-22T13:08:52;5.60;99.90
16767;DHT22;8501;49.926;8.404;2023-11-22T13:11:18;5.70;99.90
16767;DHT22;8501;49.926;8.404;2023-11-22T13:13:44;5.60;99.90
16767;DHT22;8501;49.926;8.404;2023-11-22T13:16:12;5.60;99.90
16767;DHT22;8501;49.926;8.404;2023-11-22T13:18:37;5.60;99.90
16767;DHT22;8501;49.926;8.404;2023-11-22T13:21:03;5.50;99.90
16767;DHT22;8501;49.926;8.404;2023-11-22T13:23:29;5.50;99.90
16767;DHT22;8501;49.926;8.404;2023-11-22T13:25:55;5.50;99.90
16767;DHT22;8501;49.926;8.404;2023-11-22T13:28:20;5.60;99.90
16767;DHT22;8501;49.926;8.404;2023-11-22T13:30:46;5.60;99.90
16767;DHT22;8501;49.926;8.404;2023-11-22T13:33:14;5.60;99.90
16767;DHT22;8501;49.926;8.404;2023-11-22T13:35:39;5.50;99.90
16767;DHT22;8501;49.926;8.404;2023-11-22T13:38:06;5.50;99.90
16767;DHT22;8501;49.926;8.404;2023-11-22T13:40:36;5.50;99.90
16767;DHT22;8501;49.926;8.404;2023-11-22T13:43:04;5.40;99.90
16767;DHT22;8501;49.926;8.404;2023-11-22T13:45:30;5.50;99.90
16767;DHT22;8501;49.926;8.404;2023-11-22T13:47:56;5.40;99.90
16767;DHT22;8501;49.926;8.404;2023-11-22T13:50:29;5.40;99.90
16767;DHT22;8501;49.926;8.404;2023-11-22T13:52:55;5.40;99.90
16767;DHT22;8501;49.926;8.404;2023-11-22T13:55:22;5.50;99.90
16767;DHT22;8501;49.926;8.404;2023-11-22T13:57:51;5.50;99.90
16767;DHT22;8501;49.926;8.404;2023-11-22T14:00:22;5.50;99.90
16767;DHT22;8501;49.926;8.404;2023-11-22T14:02:55;5.50;99.90
16767;DHT22;8501;49.926;8.404;2023-11-22T14:05:25;5.40;99.90
16767;DHT22;8501;49.926;8.404;2023-11-22T14:07:52;5.40;99.90
16767;DHT22;8501;49.926;8.404;2023-11-22T14:10:18;5.40;99.90
16767;DHT22;8501;49.926;8.404;2023-11-22T14:12:44;5.40;99.90
16767;DHT22;8501;49.926;8.404;2023-11-22T14:15:11;5.50;99.90
16767;DHT22;8501;49.926;8.404;2023-11-22T14:17:37;5.50;99.90
16767;DHT22;8501;49.926;8.404;2023-11-22T14:20:07;5.50;99.90
16767;DHT22;8501;49.926;8.404;2023-11-22T14:22:35;5.50;99.90
16767;DHT22;8501;49.926;8.404;2023-11-22T14:25:00;5.50;99.90
16767;DHT22;8501;49.926;8.404;2023-11-22T14:27:26;5.50;99.90
16767;DHT22;8501;49.926;8.404;2023-11-22T14:29:53;5.40;99.90
16767;DHT22;8501;49.926;8.404;2023-11-22T14:32:20;5.40;99.90
16767;DHT22;8501;49.926;8.404;2023-11-22T14:34:48;5.40;99.90
16767;DHT22;8501;49.926;8.404;2023-11-22T14:37:14;5.50;99.90
16767;DHT22;8501;49.926;8.404;2023-11-22T14:39:40;5.50;99.90
16767;DHT22;8501;49.926;8.404;2023-11-22T14:42:06;5.50;99.90
16767;DHT22;8501;49.926;8.404;2023-11-22T14:44:33;5.50;99.90
16767;DHT22;8501;49.926;8.404;2023-11-22T14:46:59;5.70;99.90
16767;DHT22;8501;49.926;8.404;2023-11-22T14:49:27;6.20;99.90
16767;DHT22;8501;49.926;8.404;2023-11-22T14:51:52;6.50;99.90
16767;DHT22;8501;49.926;8.404;2023-11-22T14:54:18;6.50;99.90
16767;DHT22;8501;49.926;8.404;2023-11-22T14:56:43;6.40;99.90
16767;DHT22;8501;49.926;8.404;2023-11-22T14:59:10;6.40;99.90
16767;DHT22;8501;49.926;8.404;2023-11-22T15:01:36;6.30;99.90
16767;DHT22;8501;49.926;8.404;2023-11-22T15:04:02;6.20;99.90
16767;DHT22;8501;49.926;8.404;2023-11-22T15:06:27;5.80;99.90
16767;DHT22;8501;49.926;8.404;2023-11-22T15:08:53;5.70;99.90
16767;DHT22;8501;49.926;8.404;2023-11-22T15:11:18;5.60;99.90
16767;DHT22;8501;49.926;8.404;2023-11-22T15:13:45;5.60;99.90
16767;DHT22;8501;49.926;8.404;2023-11-22T15:16:10;5.60;99.90
16767;DHT22;8501;49.926;8.404;2023-11-22T15:18:44;5.50;99.90
16767;DHT22;8501;49.926;8.404;2023-11-22T15:21:09;5.40;99.90
16767;DHT22;8501;49.926;8.404;2023-11-22T15:23:35;5.30;99.90
16767;DHT22;8501;49.926;8.404;2023-11-22T15:26:01;5.30;99.90
16767;DHT22;8501;49.926;8.404;2023-11-22T15:28:26;5.20;99.90
16767;DHT22;8501;49.926;8.404;2023-11-22T15:30:52;5.10;99.90
16767;DHT22;8501;49.926;8.404;2023-11-22T15:33:26;5.00;99.90
16767;DHT22;8501;49.926;8.404;2023-11-22T15:35:52;5.10;99.90
16767;DHT22;8501;49.926;8.404;2023-11-22T15:38:19;5.00;99.90
16767;DHT22;8501;49.926;8.404;2023-11-22T15:40:44;4.90;99.90
16767;DHT22;8501;49.926;8.404;2023-11-22T15:43:10;4.90;99.90
16767;DHT22;8501;49.926;8.404;2023-11-22T15:45:36;4.90;99.90
16767;DHT22;8501;49.926;8.404;2023-11-22T15:48:05;4.90;99.90
16767;DHT22;8501;49.926;8.404;2023-11-22T15:50:30;4.80;99.90
16767;DHT22;8501;49.926;8.404;2023-11-22T15:52:58;4.80;99.90
16767;DHT22;8501;49.926;8.404;2023-11-22T15:55:23;4.80;99.90
16767;DHT22;8501;49.926;8.404;2023-11-22T15:57:50;4.80;99.90
16767;DHT22;8501;49.926;8.404;2023-11-22T16:00:16;4.90;99.90
16767;DHT22;8501;49.926;8.404;2023-11-22T16:02:42;4.80;99.90
16767;DHT22;8501;49.926;8.404;2023-11-22T16:05:07;4.80;99.90